createdAt,value
2018-07-13T00:00:28.537Z,6.43
2018-07-13T00:02:58.301Z,5.13
2018-07-13T00:06:01.243Z,5.30
2018-07-13T00:08:31.457Z,4.90
2018-07-13T00:11:01.660Z,4.87
2018-07-13T00:13:31.719Z,5.17
2018-07-13T00:16:03.923Z,4.60
2018-07-13T00:18:34.838Z,4.37
2018-07-13T00:21:05.027Z,4.57
2018-07-13T00:23:35.085Z,4.90
2018-07-13T00:26:05.094Z,5.20
2018-07-13T00:28:39.532Z,5.30
2018-07-13T00:31:10.310Z,5.43
2018-07-13T00:33:51.406Z,5.00
2018-07-13T00:36:21.211Z,5.20
2018-07-13T00:39:06.074Z,5.83
2018-07-13T00:41:36.150Z,6.47
2018-07-13T00:44:26.432Z,4.90
2018-07-13T00:47:03.417Z,5.10
2018-07-13T00:49:33.246Z,5.47
2018-07-13T00:52:09.958Z,4.83
2018-07-13T00:54:39.853Z,5.20
2018-07-13T00:57:09.767Z,5.20
2018-07-13T00:59:39.957Z,6.00
2018-07-13T01:02:09.534Z,5.30
2018-07-13T01:04:39.228Z,4.90
2018-07-13T01:07:09.139Z,6.07
2018-07-13T01:09:38.647Z,5.03
2018-07-13T01:12:08.226Z,5.67
2018-07-13T01:14:38.370Z,5.63
2018-07-13T01:17:09.281Z,5.50
2018-07-13T01:19:38.784Z,5.57
2018-07-13T01:22:08.462Z,6.33
2018-07-13T01:24:38.162Z,5.33
2018-07-13T01:27:09.083Z,6.00
2018-07-13T01:29:38.527Z,5.57
2018-07-13T01:32:08.160Z,5.40
2018-07-13T01:34:37.635Z,5.73
2018-07-13T01:37:07.365Z,5.03
2018-07-13T01:39:37.329Z,5.80
2018-07-13T01:42:09.160Z,6.47
2018-07-13T01:44:38.630Z,5.07
2018-07-13T01:47:08.995Z,5.13
2018-07-13T01:49:38.450Z,5.10
2018-07-13T01:52:10.396Z,6.00
2018-07-13T01:54:40.016Z,6.20
2018-07-13T01:57:09.940Z,5.40
2018-07-13T01:59:41.380Z,5.17
2018-07-13T02:02:11.611Z,5.17
2018-07-13T02:04:41.324Z,5.10
2018-07-13T02:07:10.998Z,5.97
2018-07-13T02:09:40.469Z,5.87
2018-07-13T02:12:10.103Z,5.43
2018-07-13T02:14:39.746Z,5.03
2018-07-13T02:17:10.497Z,5.63
2018-07-13T02:19:40.010Z,5.57
2018-07-13T02:22:09.619Z,5.17
2018-07-13T02:24:39.463Z,7.20
2018-07-13T02:27:09.145Z,7.10
2018-07-13T02:29:38.739Z,5.90
2018-07-13T02:32:10.798Z,5.70
2018-07-13T02:34:40.348Z,7.77
2018-07-13T02:37:09.835Z,6.73
2018-07-13T02:39:39.365Z,5.67
2018-07-13T02:42:08.890Z,6.30
2018-07-13T02:44:38.512Z,6.07
2018-07-13T02:47:08.487Z,6.17
2018-07-13T02:49:38.847Z,6.43
2018-07-13T02:52:08.402Z,6.33
2018-07-13T02:54:38.429Z,5.77
2018-07-13T02:59:37.871Z,6.37
2018-07-13T03:02:08.815Z,7.67
2018-07-13T03:04:38.524Z,5.87
2018-07-13T03:07:08.474Z,6.77
2018-07-13T03:09:38.022Z,6.77
2018-07-13T03:18:12.578Z,5.70
2018-07-13T03:20:42.090Z,6.13
2018-07-13T03:23:11.895Z,5.57
2018-07-13T03:25:41.692Z,5.70
2018-07-13T03:28:11.538Z,6.57
2018-07-13T03:30:41.559Z,6.23
2018-07-13T03:33:11.474Z,6.30
2018-07-13T03:35:41.696Z,6.00
2018-07-13T03:38:11.495Z,6.73
2018-07-13T03:40:41.090Z,5.83
2018-07-13T03:43:20.359Z,5.73
2018-07-13T03:45:53.821Z,5.90
2018-07-13T03:48:24.891Z,6.93
2018-07-13T03:50:54.838Z,7.30
2018-07-13T03:53:24.434Z,6.13
2018-07-13T03:55:54.207Z,6.10
2018-07-13T03:58:24.046Z,6.10
2018-07-13T04:00:53.721Z,6.43
2018-07-13T04:03:24.214Z,8.20
2018-07-13T04:05:54.064Z,6.03
2018-07-13T04:08:24.146Z,6.10
2018-07-13T04:10:53.993Z,6.20
2018-07-13T04:13:24.040Z,6.23
2018-07-13T04:15:53.863Z,6.97
2018-07-13T04:18:24.688Z,6.23
2018-07-13T04:20:54.667Z,6.50
2018-07-13T04:23:24.920Z,5.80
2018-07-13T04:25:54.490Z,6.70
2018-07-13T04:28:28.106Z,5.63
2018-07-13T04:30:57.606Z,6.93
2018-07-13T04:33:27.212Z,6.10
2018-07-13T04:35:56.643Z,6.50
2018-07-13T04:38:26.267Z,5.97
2018-07-13T04:40:55.798Z,6.23
2018-07-13T04:43:25.795Z,6.00
2018-07-13T04:45:55.544Z,6.73
2018-07-13T04:48:25.312Z,6.93
2018-07-13T04:50:55.002Z,6.43
2018-07-13T04:53:25.408Z,6.53
2018-07-13T04:55:55.013Z,9.10
2018-07-13T04:58:24.775Z,6.73
2018-07-13T05:00:54.398Z,6.10
2018-07-13T05:03:25.787Z,6.30
2018-07-13T05:05:55.854Z,6.47
2018-07-13T05:08:25.931Z,6.00
2018-07-13T05:10:57.771Z,7.20
2018-07-13T05:13:27.534Z,6.27
2018-07-13T05:15:57.736Z,8.27
2018-07-13T05:18:27.674Z,7.00
2018-07-13T05:20:58.853Z,6.70
2018-07-13T05:23:28.615Z,7.70
2018-07-13T05:25:58.192Z,10.10
2018-07-13T05:28:28.169Z,9.00
2018-07-13T05:30:58.506Z,7.10
2018-07-13T05:33:28.121Z,7.70
2018-07-13T05:35:58.879Z,9.50
2018-07-13T05:38:28.486Z,9.37
2018-07-13T05:40:58.118Z,8.37
2018-07-13T05:43:27.906Z,7.67
2018-07-13T05:45:58.359Z,10.03
2018-07-13T05:48:30.703Z,9.93
2018-07-13T05:51:00.649Z,8.80
2018-07-13T05:53:30.426Z,9.83
2018-07-13T05:56:00.075Z,7.70
2018-07-13T05:58:30.792Z,11.07
2018-07-13T06:01:08.815Z,10.70
2018-07-13T06:03:38.364Z,8.93
2018-07-13T06:06:07.963Z,8.03
2018-07-13T06:08:37.712Z,13.37
2018-07-13T06:11:08.061Z,10.60
2018-07-13T06:13:37.557Z,12.57
2018-07-13T06:16:06.963Z,11.70
2018-07-13T06:18:36.852Z,13.83
2018-07-13T06:21:07.141Z,13.23
2018-07-13T06:23:36.695Z,9.20
2018-07-13T06:26:06.536Z,11.20
2018-07-13T06:28:36.014Z,8.37
2018-07-13T06:31:05.559Z,10.40
2018-07-13T06:33:36.689Z,8.93
2018-07-13T06:36:06.198Z,8.00
2018-07-13T06:38:36.914Z,7.70
2018-07-13T06:41:09.433Z,7.07
2018-07-13T06:43:39.329Z,7.70
2018-07-13T06:46:08.813Z,7.53
2018-07-13T06:48:38.683Z,7.10
2018-07-13T06:51:08.165Z,9.27
2018-07-13T06:54:38.427Z,10.87
2018-07-13T06:57:08.412Z,7.80
2018-07-13T06:59:38.089Z,6.93
2018-07-13T07:02:08.527Z,11.27
2018-07-13T07:04:39.788Z,8.90
2018-07-13T07:07:12.845Z,8.53
2018-07-13T07:09:46.185Z,12.40
2018-07-13T07:13:25.106Z,8.17
2018-07-13T07:15:54.674Z,7.73
2018-07-13T07:18:24.463Z,7.30
2018-07-13T07:20:54.418Z,9.17
2018-07-13T07:23:24.429Z,6.40
2018-07-13T07:25:55.157Z,9.27
2018-07-13T07:28:24.666Z,8.13
2018-07-13T07:31:40.236Z,6.37
2018-07-13T07:34:12.154Z,7.63
2018-07-13T07:36:41.726Z,7.00
2018-07-13T07:39:12.653Z,7.90
2018-07-13T07:41:45.615Z,5.77
2018-07-13T07:44:15.221Z,5.27
2018-07-13T07:46:44.789Z,4.90
2018-07-13T07:49:18.938Z,5.67
2018-07-13T07:51:48.442Z,7.70
2018-07-13T07:54:17.944Z,4.63
2018-07-13T07:56:48.734Z,5.13
2018-07-13T07:59:18.781Z,5.30
2018-07-13T08:01:48.553Z,4.93
2018-07-13T08:04:30.744Z,8.03
2018-07-13T08:07:00.757Z,6.07
2018-07-13T08:09:29.870Z,7.00
2018-07-13T08:12:03.401Z,6.77
2018-07-13T08:14:32.971Z,6.80
2018-07-13T08:17:02.797Z,5.73
2018-07-13T08:19:34.885Z,5.97
2018-07-13T08:22:12.884Z,5.83
2018-07-13T08:24:44.052Z,4.03
2018-07-13T08:27:20.959Z,5.77
2018-07-13T08:29:50.895Z,5.10
2018-07-13T08:32:20.566Z,5.93
2018-07-13T08:35:00.174Z,3.60
2018-07-13T08:37:30.984Z,4.90
2018-07-13T08:40:01.249Z,4.30
2018-07-13T08:42:33.851Z,3.73
2018-07-13T08:45:03.825Z,3.67
2018-07-13T08:47:33.945Z,3.37
2018-07-13T08:50:12.672Z,3.10
2018-07-13T08:52:42.614Z,3.10
2018-07-13T08:55:14.066Z,2.80
2018-07-13T08:57:51.861Z,3.20
2018-07-13T09:00:26.836Z,3.13
2018-07-13T09:02:57.234Z,3.60
2018-07-13T09:05:27.252Z,3.27
2018-07-13T09:07:56.961Z,3.07
2018-07-13T09:10:32.367Z,3.73
2018-07-13T09:13:03.103Z,3.77
2018-07-13T09:15:32.798Z,3.00
2018-07-13T09:18:02.963Z,2.87
2018-07-13T09:20:32.631Z,4.30
2018-07-13T09:23:02.824Z,3.27
2018-07-13T09:25:37.316Z,3.03
2018-07-13T09:28:07.096Z,3.50
2018-07-13T09:30:36.835Z,4.77
2018-07-13T09:38:30.406Z,3.03
2018-07-13T09:40:59.945Z,4.00
2018-07-13T09:43:29.563Z,3.23
2018-07-13T09:46:01.951Z,4.77
2018-07-13T09:48:31.909Z,3.90
2018-07-13T09:51:01.653Z,3.70
2018-07-13T09:57:03.189Z,3.30
2018-07-13T09:59:42.434Z,3.20
2018-07-13T10:02:12.258Z,2.90
2018-07-13T10:04:46.476Z,2.73
2018-07-13T10:07:16.286Z,3.53
2018-07-13T10:09:45.845Z,4.63
2018-07-13T10:12:15.701Z,4.00
2018-07-13T10:14:46.303Z,5.33
2018-07-13T10:17:17.706Z,2.50
2018-07-13T10:19:55.059Z,3.10
2018-07-13T10:22:28.613Z,3.97
2018-07-13T10:25:00.691Z,4.20
2018-07-13T10:27:36.349Z,3.83
2018-07-13T10:30:07.737Z,2.90
2018-07-13T10:32:37.765Z,2.40
2018-07-13T10:35:08.679Z,2.90
2018-07-13T10:37:38.920Z,3.10
2018-07-13T10:40:08.517Z,2.93
2018-07-13T10:42:40.543Z,3.13
2018-07-13T10:45:09.968Z,2.80
2018-07-13T10:47:39.525Z,3.23
2018-07-13T10:50:10.280Z,2.80
2018-07-13T10:52:39.846Z,3.30
2018-07-13T10:55:14.156Z,5.03
2018-07-13T10:57:43.867Z,4.10
2018-07-13T11:00:13.516Z,3.83
2018-07-13T11:02:43.094Z,3.47
2018-07-13T11:05:16.402Z,3.40
2018-07-13T11:07:46.099Z,3.10
2018-07-13T11:10:26.351Z,3.97
2018-07-13T11:12:56.165Z,4.60
2018-07-13T11:15:26.942Z,4.20
2018-07-13T11:17:59.068Z,4.03
2018-07-13T11:20:31.079Z,3.47
2018-07-13T11:23:00.629Z,4.07
2018-07-13T11:25:30.208Z,3.73
2018-07-13T11:28:01.069Z,2.97
2018-07-13T11:30:30.609Z,4.33
2018-07-13T11:33:01.351Z,3.80
2018-07-13T11:35:30.830Z,3.23
2018-07-13T11:38:02.848Z,3.70
2018-07-13T11:40:32.426Z,3.73
2018-07-13T11:43:02.141Z,3.53
2018-07-13T11:45:31.711Z,3.87
2018-07-13T11:50:58.001Z,4.27
2018-07-13T11:53:27.600Z,3.50
2018-07-13T11:55:57.447Z,5.23
2018-07-13T11:58:27.063Z,3.73
2018-07-13T12:00:56.847Z,4.63
2018-07-13T12:03:26.495Z,3.63
2018-07-13T12:05:57.412Z,3.47
2018-07-13T12:08:27.056Z,3.70
2018-07-13T12:10:56.569Z,4.73
2018-07-13T12:13:26.189Z,3.70
2018-07-13T12:15:55.849Z,3.53
2018-07-13T12:18:35.967Z,3.80
2018-07-13T12:21:05.725Z,3.33
2018-07-13T12:23:35.466Z,3.63
2018-07-13T12:26:06.399Z,4.13
2018-07-13T12:28:36.347Z,4.43
2018-07-13T12:31:12.944Z,4.03
2018-07-13T12:33:42.906Z,5.80
2018-07-13T12:39:12.901Z,4.23
2018-07-13T12:41:42.635Z,4.53
2018-07-13T12:44:18.812Z,3.70
2018-07-13T12:46:48.535Z,3.60
2018-07-13T12:49:18.145Z,3.73
2018-07-13T12:51:47.760Z,4.60
2018-07-13T12:54:18.696Z,3.50
2018-07-13T13:01:52.665Z,4.13
2018-07-13T13:04:23.912Z,3.20
2018-07-13T13:06:56.159Z,3.30
2018-07-13T13:09:25.929Z,4.70
2018-07-13T13:11:57.039Z,3.23
2018-07-13T13:17:19.605Z,3.30
2018-07-13T13:19:57.012Z,2.93
2018-07-13T13:22:26.526Z,2.80
2018-07-13T13:28:17.983Z,3.63
2018-07-13T13:30:47.590Z,3.67
2018-07-13T13:33:17.384Z,5.60
2018-07-13T13:38:40.537Z,4.87
2018-07-13T13:41:10.992Z,3.83
2018-07-13T13:43:42.651Z,3.93
2018-07-13T13:46:15.480Z,3.87
2018-07-13T13:48:45.213Z,6.20
2018-07-13T13:51:15.413Z,4.53
2018-07-13T13:53:49.204Z,3.93
2018-07-13T13:56:26.267Z,4.17
2018-07-13T13:58:57.379Z,4.00
2018-07-13T14:04:03.376Z,8.07
2018-07-13T14:06:40.304Z,4.50
2018-07-13T14:09:11.287Z,4.20
2018-07-13T14:11:44.703Z,3.43
2018-07-13T14:14:20.605Z,3.33
2018-07-13T14:16:51.418Z,3.63
2018-07-13T14:19:21.583Z,3.17
2018-07-13T14:21:51.547Z,13.10
2018-07-13T14:24:22.835Z,3.50
2018-07-13T14:30:03.371Z,3.90
2018-07-13T14:32:50.142Z,3.90
2018-07-13T14:35:24.264Z,5.97
2018-07-13T14:37:55.392Z,4.03
2018-07-13T14:40:47.952Z,4.20
2018-07-13T14:43:18.411Z,4.30
2018-07-13T14:45:51.028Z,3.47
2018-07-13T14:48:20.567Z,4.43
2018-07-13T14:50:50.470Z,3.03
2018-07-13T14:53:21.604Z,3.73
2018-07-13T14:55:51.133Z,5.00
2018-07-13T14:58:20.807Z,3.43
2018-07-13T15:00:50.509Z,4.10
2018-07-13T15:03:26.637Z,3.83
2018-07-13T15:05:56.445Z,4.27
2018-07-13T15:08:31.940Z,4.67
2018-07-13T15:11:01.736Z,4.50
2018-07-13T15:13:31.287Z,4.23
2018-07-13T15:16:09.759Z,4.83
2018-07-13T15:18:40.025Z,3.60
2018-07-13T15:21:09.934Z,3.70
2018-07-13T15:23:40.812Z,4.93
2018-07-13T15:26:10.414Z,9.40
2018-07-13T15:28:39.853Z,4.10
2018-07-13T15:31:09.292Z,4.10
2018-07-13T15:33:39.420Z,4.20
2018-07-13T15:36:09.115Z,4.10
2018-07-13T15:38:40.294Z,3.77
2018-07-13T15:41:09.918Z,3.77
2018-07-13T15:43:39.416Z,3.33
2018-07-13T15:46:09.853Z,5.20
2018-07-13T15:48:42.223Z,4.20
2018-07-13T15:51:11.857Z,3.87
2018-07-13T15:53:41.472Z,3.57
2018-07-13T15:56:10.989Z,3.40
2018-07-13T15:58:40.989Z,3.83
2018-07-13T16:01:10.794Z,3.43
2018-07-13T16:03:40.302Z,3.80
2018-07-13T16:06:09.766Z,4.30
2018-07-13T16:08:39.641Z,6.23
2018-07-13T16:11:09.547Z,4.73
2018-07-13T16:13:39.141Z,3.83
2018-07-13T16:16:08.779Z,4.10
2018-07-13T16:18:39.777Z,3.17
2018-07-13T16:21:09.347Z,3.50
2018-07-13T16:23:41.485Z,5.10
2018-07-13T16:26:11.118Z,3.87
2018-07-13T16:28:40.934Z,3.20
2018-07-13T16:31:11.269Z,3.30
2018-07-13T16:33:41.668Z,3.90
2018-07-13T16:36:11.617Z,3.93
2018-07-13T16:38:46.921Z,3.87
2018-07-13T16:41:16.595Z,4.63
2018-07-13T16:43:46.692Z,3.83
2018-07-13T16:46:25.245Z,2.87
2018-07-13T16:48:54.873Z,3.43
2018-07-13T16:51:25.506Z,3.87
2018-07-13T16:53:55.075Z,3.10
2018-07-13T16:56:25.968Z,3.50
2018-07-13T16:58:55.380Z,5.10
2018-07-13T17:01:24.888Z,3.73
2018-07-13T17:03:54.666Z,3.97
2018-07-13T17:06:24.312Z,3.60
2018-07-13T17:08:57.499Z,3.20
2018-07-13T17:12:02.523Z,4.67
2018-07-13T17:14:32.962Z,4.70
2018-07-13T17:17:03.190Z,3.60
2018-07-13T17:19:35.042Z,3.40
2018-07-13T17:22:04.514Z,3.73
2018-07-13T17:24:34.642Z,3.87
2018-07-13T17:27:04.459Z,4.20
2018-07-13T17:29:39.764Z,6.83
2018-07-13T17:32:09.328Z,4.20
2018-07-13T17:34:39.442Z,3.80
2018-07-13T17:37:10.435Z,4.93
2018-07-13T17:39:41.480Z,3.37
2018-07-13T17:42:10.950Z,3.53
2018-07-13T17:44:41.161Z,7.10
2018-07-13T17:47:10.562Z,4.00
2018-07-13T17:49:41.729Z,3.40
2018-07-13T17:52:11.145Z,4.10
2018-07-13T17:54:40.781Z,3.10
2018-07-13T17:57:10.261Z,3.80
2018-07-13T17:59:40.990Z,4.97
2018-07-13T18:02:10.389Z,3.40
2018-07-13T18:04:40.218Z,3.37
2018-07-13T18:07:09.909Z,5.60
2018-07-13T18:09:41.780Z,4.90
2018-07-13T18:12:11.235Z,5.77
2018-07-13T18:14:40.940Z,3.73
2018-07-13T18:17:10.503Z,3.67
2018-07-13T18:21:15.685Z,3.43
2018-07-13T18:23:45.417Z,4.87
2018-07-13T18:29:18.494Z,4.17
2018-07-13T18:35:22.190Z,4.23
2018-07-13T18:38:07.540Z,4.00
2018-07-13T18:40:52.967Z,5.37
2018-07-13T18:43:26.559Z,5.53
2018-07-13T18:46:00.565Z,5.63
2018-07-13T18:48:37.548Z,3.97
2018-07-13T18:51:21.351Z,7.30
2018-07-13T18:53:53.422Z,4.33
2018-07-13T18:56:25.066Z,5.67
2018-07-13T18:58:56.336Z,5.23
2018-07-13T19:01:33.098Z,4.27
2018-07-13T19:04:05.814Z,6.47
2018-07-13T19:06:35.794Z,3.73
2018-07-13T19:09:11.113Z,6.47
2018-07-13T19:11:47.130Z,4.53
2018-07-13T19:14:25.246Z,4.17
2018-07-13T19:17:01.015Z,4.50
2018-07-13T19:19:35.661Z,4.30
2018-07-13T19:22:09.791Z,4.10
2018-07-13T19:25:45.673Z,4.40
2018-07-13T19:28:22.404Z,4.20
2018-07-13T19:30:59.313Z,3.67
2018-07-13T19:33:32.649Z,4.50
2018-07-13T19:36:06.505Z,6.40
2018-07-13T19:38:41.278Z,5.17
2018-07-13T19:44:00.172Z,4.97
2018-07-13T19:46:37.504Z,6.20
2018-07-13T19:49:18.018Z,4.30
2018-07-13T19:51:50.539Z,5.37
2018-07-13T19:54:21.989Z,6.17
2018-07-13T19:56:55.607Z,4.03
2018-07-13T19:59:34.212Z,4.47
2018-07-13T20:02:07.743Z,7.37
2018-07-13T20:04:40.594Z,5.23
2018-07-13T20:07:19.779Z,5.57
2018-07-13T20:09:52.664Z,4.57
2018-07-13T20:12:24.813Z,4.33
2018-07-13T20:14:55.768Z,5.47
2018-07-13T20:17:29.044Z,7.97
2018-07-13T20:20:19.701Z,7.43
2018-07-13T20:22:54.287Z,4.77
2018-07-13T20:25:43.442Z,5.50
2018-07-13T20:28:21.142Z,6.27
2018-07-13T20:31:02.210Z,4.47
2018-07-13T20:33:50.850Z,4.67
2018-07-13T20:36:38.532Z,4.93
2018-07-13T20:39:13.288Z,5.67
2018-07-13T20:41:50.580Z,5.20
2018-07-13T20:44:23.208Z,5.80
2018-07-13T20:47:03.269Z,4.70
2018-07-13T20:49:48.961Z,6.57
2018-07-13T20:52:52.359Z,7.33
2018-07-13T21:01:31.265Z,7.17
2018-07-13T21:04:14.909Z,5.23
2018-07-13T21:07:21.781Z,4.83
2018-07-13T21:12:58.654Z,4.70
2018-07-13T21:15:42.007Z,5.70
2018-07-13T21:18:17.049Z,6.00
2018-07-13T21:20:48.836Z,5.73
2018-07-13T21:23:26.073Z,6.67
2018-07-13T21:29:29.010Z,7.37
2018-07-13T21:32:20.181Z,8.10
2018-07-13T21:38:13.209Z,7.20
2018-07-13T21:41:42.773Z,5.90
2018-07-13T22:19:48.484Z,8.07
2018-07-13T22:23:21.860Z,7.40
2018-07-13T22:34:45.141Z,6.27
2018-07-13T22:43:30.266Z,6.40
2018-07-13T22:57:19.634Z,10.07
2018-07-13T23:08:45.525Z,8.13
2018-07-13T23:11:33.020Z,8.13
2018-07-13T23:32:27.610Z,7.47
2018-07-13T23:34:57.986Z,8.27
2018-07-13T23:37:34.777Z,11.20
2018-07-13T23:40:09.414Z,6.13
2018-07-13T23:42:40.665Z,7.87
2018-07-13T23:45:13.519Z,6.67
2018-07-13T23:47:43.420Z,7.03
2018-07-13T23:50:13.264Z,9.13
2018-07-13T23:52:45.893Z,6.00
2018-07-13T23:55:15.829Z,7.70
2018-07-13T23:57:48.452Z,6.13
